Time;durP1;ratioP1;P1;durP2;ratioP2;P2;SDS_P1;SDS_P2;PMS_P1;PMS_P2;Temp;Humidity;BMP_temperature;BMP_pressure;BME280_temperature;BME280_humidity;BME280_pressure;Samples;Min_cycle;Max_cycle;Signal;HPM_P1;HPM_P2
2022/08/19 00:00:21;;;;;;;47.00;33.58;;;;;;;18.50;100.00;100963.56;5034494;28;20045;-77
2022/08/19 00:02:47;;;;;;;48.85;33.75;;;;;;;18.64;100.00;100959.22;4990733;28;20037;-79
2022/08/19 00:05:14;;;;;;;48.95;33.03;;;;;;;18.62;100.00;100958.53;5023146;28;20087;-78
2022/08/19 00:07:41;;;;;;;52.08;33.50;;;;;;;18.50;100.00;100958.00;5024333;28;20159;-79
2022/08/19 00:10:07;;;;;;;57.83;35.65;;;;;;;18.40;100.00;100960.94;5042985;28;20044;-79
2022/08/19 00:12:33;;;;;;;53.00;34.05;;;;;;;18.44;100.00;100969.78;5014604;28;20179;-79
2022/08/19 00:14:59;;;;;;;48.28;33.80;;;;;;;18.42;100.00;100969.94;5003338;28;20034;-79
2022/08/19 00:17:26;;;;;;;56.25;35.97;;;;;;;18.28;100.00;100967.81;5007339;28;20516;-79
2022/08/19 00:19:51;;;;;;;54.83;38.10;;;;;;;18.23;100.00;100961.94;4991570;28;20040;-79
2022/08/19 00:22:17;;;;;;;57.88;35.20;;;;;;;18.07;100.00;100965.50;5041468;28;20092;-79
2022/08/19 00:24:45;;;;;;;48.28;31.92;;;;;;;17.98;100.00;100968.25;5017565;28;20026;-79
2022/08/19 00:27:11;;;;;;;44.03;30.65;;;;;;;17.88;100.00;100969.44;5015309;28;20161;-79
2022/08/19 00:29:37;;;;;;;51.95;32.78;;;;;;;17.99;100.00;100986.63;5010304;28;20046;-78
2022/08/19 00:32:06;;;;;;;49.58;32.15;;;;;;;18.06;100.00;100978.50;5019735;28;20397;-78
2022/08/19 00:34:32;;;;;;;50.85;34.85;;;;;;;18.05;100.00;100974.00;5021685;28;20040;-78
2022/08/19 00:36:58;;;;;;;50.28;34.75;;;;;;;18.08;100.00;100967.25;4996230;28;20124;-78
2022/08/19 00:39:23;;;;;;;53.00;35.33;;;;;;;18.18;100.00;100974.41;5023380;28;20466;-77
2022/08/19 00:41:50;;;;;;;49.25;35.33;;;;;;;18.09;100.00;100966.22;5020701;28;20048;-79
2022/08/19 00:44:26;;;;;;;55.90;35.22;;;;;;;18.07;100.00;100965.50;5041731;28;20026;-79
2022/08/19 00:46:54;;;;;;;51.95;35.40;;;;;;;18.12;100.00;100961.22;5010326;28;20045;-80
2022/08/19 00:49:27;;;;;;;59.20;36.28;;;;;;;17.97;100.00;100971.19;5041875;28;20080;-79
2022/08/19 00:52:00;;;;;;;50.10;34.83;;;;;;;18.02;100.00;100965.16;5005600;28;20026;-80
2022/08/19 00:54:26;;;;;;;47.70;33.70;;;;;;;17.98;100.00;100972.94;4996572;28;20025;-79
2022/08/19 00:56:52;;;;;;;58.08;38.25;;;;;;;17.95;100.00;100959.41;5010674;28;20056;-79
2022/08/19 00:59:20;;;;;;;50.45;35.08;;;;;;;17.91;100.00;100986.59;5014570;28;20030;-80
2022/08/19 01:01:46;;;;;;;43.95;31.20;;;;;;;17.61;100.00;100980.53;5022697;28;20042;-79
2022/08/19 01:04:13;;;;;;;46.55;32.70;;;;;;;17.34;100.00;100983.47;5027298;28;20029;-80
2022/08/19 01:06:41;;;;;;;39.92;29.27;;;;;;;17.26;100.00;100982.38;5046189;28;20045;-79
2022/08/19 01:09:07;;;;;;;42.30;30.30;;;;;;;17.15;100.00;100981.75;5028395;28;20052;-79
2022/08/19 01:11:38;;;;;;;46.08;30.58;;;;;;;17.00;100.00;100978.72;5028760;28;20091;-78
2022/08/19 01:14:05;;;;;;;43.08;29.42;;;;;;;17.05;100.00;100984.63;5019121;28;20064;-79
2022/08/19 01:16:34;;;;;;;37.80;26.48;;;;;;;17.11;100.00;100981.22;5030224;28;20034;-79
2022/08/19 01:19:00;;;;;;;41.33;29.10;;;;;;;17.18;100.00;100981.44;5024631;28;20401;-78
2022/08/19 01:21:54;;;;;;;44.70;31.15;;;;;;;17.07;100.00;100969.63;5029848;28;20037;-79
2022/08/19 01:24:22;;;;;;;41.50;29.45;;;;;;;17.08;100.00;100979.63;5045897;28;20036;-79
2022/08/19 01:26:49;;;;;;;45.40;32.03;;;;;;;17.18;100.00;100985.06;5024467;28;20044;-80
2022/08/19 01:29:15;;;;;;;46.80;32.20;;;;;;;17.19;100.00;100985.97;5009240;28;20029;-78
2022/08/19 01:31:42;;;;;;;43.97;32.00;;;;;;;17.05;100.00;100988.28;5029511;28;20057;-79
2022/08/19 01:34:08;;;;;;;42.67;30.48;;;;;;;17.03;100.00;100987.56;5029426;28;20523;-78
2022/08/19 01:36:41;;;;;;;42.08;30.27;;;;;;;17.30;100.00;100991.25;5009675;28;20029;-80
2022/08/19 01:39:10;;;;;;;48.28;30.80;;;;;;;17.36;100.00;100985.03;5029704;28;20076;-79
2022/08/19 01:41:38;;;;;;;51.53;30.85;;;;;;;17.42;100.00;100981.63;5037426;28;20056;-79
2022/08/19 01:44:06;;;;;;;47.03;31.85;;;;;;;17.38;100.00;100988.53;5030036;28;20029;-79
2022/08/19 01:46:32;;;;;;;48.45;31.25;;;;;;;17.33;100.00;100978.94;5033565;28;20055;-80
2022/08/19 01:48:59;;;;;;;48.55;33.33;;;;;;;17.17;100.00;100975.06;5021217;28;20025;-78
2022/08/19 01:51:26;;;;;;;48.95;34.33;;;;;;;17.16;100.00;100986.28;5039245;28;20409;-80
2022/08/19 01:53:53;;;;;;;53.78;35.65;;;;;;;17.18;100.00;100984.22;5036889;28;20039;-79
2022/08/19 01:56:20;;;;;;;57.78;35.35;;;;;;;17.18;100.00;100992.50;5027846;28;20474;-78
2022/08/19 01:58:53;;;;;;;53.25;34.15;;;;;;;17.34;100.00;100995.41;5030711;28;20033;-80
2022/08/19 02:01:19;;;;;;;55.15;36.40;;;;;;;17.47;100.00;101006.03;5025994;28;20547;-79
2022/08/19 02:03:45;;;;;;;60.38;37.85;;;;;;;17.30;100.00;101006.94;5025421;28;20025;-78
2022/08/19 02:06:16;;;;;;;54.25;36.30;;;;;;;17.25;100.00;101010.22;4991484;28;20021;-78
2022/08/19 02:08:45;;;;;;;57.78;36.97;;;;;;;17.26;100.00;101014.72;5004681;28;20548;-79
2022/08/19 02:11:19;;;;;;;56.75;36.13;;;;;;;17.37;100.00;101011.69;5009996;28;20033;-78
2022/08/19 02:13:49;;;;;;;65.40;40.42;;;;;;;17.44;100.00;101007.22;5022676;28;20485;-78
2022/08/19 02:16:16;;;;;;;65.85;39.85;;;;;;;17.50;100.00;101014.03;5022236;28;20042;-78
2022/08/19 02:18:41;;;;;;;62.08;38.83;;;;;;;17.47;100.00;101003.28;5021491;28;20040;-78
2022/08/19 02:21:12;;;;;;;65.32;38.30;;;;;;;17.35;100.00;101004.56;5045231;28;20083;-78
2022/08/19 02:23:44;;;;;;;69.63;40.10;;;;;;;17.43;100.00;101001.84;4977296;28;20038;-79
2022/08/19 02:26:12;;;;;;;65.60;40.25;;;;;;;17.41;100.00;101004.81;5014931;28;20467;-79
2022/08/19 02:28:38;;;;;;;68.13;39.72;;;;;;;17.45;100.00;101002.56;5020277;28;20080;-78
2022/08/19 02:31:17;;;;;;;65.40;37.50;;;;;;;17.41;100.00;101007.59;5029166;28;20048;-78
2022/08/19 02:33:44;;;;;;;53.25;35.15;;;;;;;17.36;100.00;101007.16;5027233;28;20033;-76
2022/08/19 02:36:11;;;;;;;54.47;36.50;;;;;;;17.37;100.00;101008.91;5004826;28;20037;-79
2022/08/19 02:38:39;;;;;;;57.15;38.05;;;;;;;17.43;100.00;101005.50;5023765;28;20033;-79
2022/08/19 02:41:10;;;;;;;62.15;38.22;;;;;;;17.36;100.00;101011.84;5033667;28;20033;-79
2022/08/19 02:43:38;;;;;;;61.88;37.63;;;;;;;17.34;100.00;101022.22;5035239;28;20088;-79
2022/08/19 02:46:20;;;;;;;54.25;35.45;;;;;;;17.36;100.00;101022.91;5053448;28;20053;-80
2022/08/19 02:48:50;;;;;;;58.63;35.85;;;;;;;17.29;100.00;101019.06;5022512;28;20045;-79
2022/08/19 02:51:29;;;;;;;56.65;36.17;;;;;;;17.11;100.00;101013.56;5025676;28;20037;-79
2022/08/19 02:53:57;;;;;;;44.63;30.85;;;;;;;17.17;100.00;101008.25;5008907;28;20517;-79
2022/08/19 02:56:24;;;;;;;45.00;29.60;;;;;;;17.14;100.00;101010.50;5018665;28;20049;-78
2022/08/19 02:58:50;;;;;;;47.65;29.17;;;;;;;17.01;100.00;101003.44;5006621;28;20033;-79
2022/08/19 03:01:27;;;;;;;52.00;31.38;;;;;;;17.02;100.00;101004.31;5027486;28;20036;-79
2022/08/19 03:04:00;;;;;;;46.65;30.25;;;;;;;16.90;100.00;101006.47;5043707;28;20029;-78
2022/08/19 03:06:27;;;;;;;51.83;31.98;;;;;;;16.95;100.00;101011.53;5026158;28;20044;-80
2022/08/19 03:08:54;;;;;;;58.15;31.05;;;;;;;16.94;100.00;101007.00;5028865;28;20033;-79
2022/08/19 03:11:27;;;;;;;51.92;32.67;;;;;;;16.75;100.00;101006.13;5025750;28;20026;-79
2022/08/19 03:13:54;;;;;;;50.40;31.45;;;;;;;16.68;100.00;101005.03;5029784;28;20048;-79
2022/08/19 03:16:25;;;;;;;47.00;32.33;;;;;;;16.63;100.00;101012.94;5017505;28;20030;-78
2022/08/19 03:18:52;;;;;;;54.67;33.72;;;;;;;16.76;100.00;101012.50;4997650;28;20419;-78
2022/08/19 03:21:21;;;;;;;54.30;34.83;;;;;;;16.81;100.00;101016.56;5033153;28;20038;-79
2022/08/19 03:23:48;;;;;;;64.18;35.83;;;;;;;16.95;100.00;101022.59;5007233;28;20067;-79
2022/08/19 03:26:16;;;;;;;55.25;33.70;;;;;;;16.91;100.00;101024.81;5012814;28;20037;-79
2022/08/19 03:28:49;;;;;;;67.15;36.85;;;;;;;16.95;100.00;101036.41;5029119;28;20469;-80
2022/08/19 03:31:17;;;;;;;67.88;38.42;;;;;;;17.01;100.00;101033.88;5042726;28;20033;-82
2022/08/19 03:33:43;;;;;;;70.22;38.17;;;;;;;17.01;100.00;101031.13;5025272;28;20032;-80
2022/08/19 03:36:19;;;;;;;76.38;39.75;;;;;;;17.08;100.00;101029.44;5034487;28;20026;-80
2022/08/19 03:38:48;;;;;;;63.70;37.95;;;;;;;17.09;100.00;101022.88;5031554;28;20044;-81
2022/08/19 03:41:27;;;;;;;70.65;39.30;;;;;;;17.02;100.00;101029.22;5024383;28;20037;-80
2022/08/19 03:43:54;;;;;;;70.18;39.90;;;;;;;16.95;100.00;101026.22;5040897;28;20044;-79
2022/08/19 03:46:24;;;;;;;81.30;41.60;;;;;;;16.88;100.00;101025.13;5004404;28;20053;-80
2022/08/19 03:48:55;;;;;;;73.47;39.97;;;;;;;16.96;100.00;101014.13;5015841;28;20500;-80
2022/08/19 03:51:22;;;;;;;75.90;41.85;;;;;;;17.01;100.00;101017.28;5020133;28;20068;-81
2022/08/19 03:53:49;;;;;;;69.95;40.33;;;;;;;16.90;100.00;101018.41;5002644;28;20121;-80
2022/08/19 03:56:15;;;;;;;71.35;40.25;;;;;;;16.85;100.00;101020.75;5022326;28;20021;-81
2022/08/19 03:58:41;;;;;;;69.75;39.28;;;;;;;16.97;100.00;101020.53;5042393;28;20036;-79
2022/08/19 04:01:17;;;;;;;73.03;39.72;;;;;;;17.05;100.00;101029.78;5024096;28;20033;-79
2022/08/19 04:03:46;;;;;;;65.63;37.97;;;;;;;17.08;100.00;101031.34;4993497;28;20018;-80
2022/08/19 04:06:21;;;;;;;72.30;40.63;;;;;;;16.89;100.00;101027.72;5010214;28;20178;-81
2022/08/19 04:08:50;;;;;;;82.10;41.45;;;;;;;17.03;100.00;101033.72;5030421;28;20026;-82
2022/08/19 04:11:21;;;;;;;66.40;38.58;;;;;;;16.96;100.00;101025.19;5021517;28;20033;-81
2022/08/19 04:13:53;;;;;;;75.03;40.50;;;;;;;17.12;100.00;101027.25;5024482;28;20365;-79
2022/08/19 04:16:24;;;;;;;67.00;38.67;;;;;;;17.09;100.00;101011.81;5035381;28;20446;-80
2022/08/19 04:18:50;;;;;;;74.85;40.17;;;;;;;17.02;100.00;101010.75;5036423;28;20384;-81
2022/08/19 04:21:26;;;;;;;64.97;39.10;;;;;;;16.99;100.00;101012.97;5021904;28;20057;-79
2022/08/19 04:23:53;;;;;;;72.38;40.95;;;;;;;17.02;100.00;101004.31;5005765;28;20053;-80
2022/08/19 04:26:31;;;;;;;72.85;40.47;;;;;;;16.93;100.00;101008.91;5019551;28;20037;-80
2022/08/19 04:29:01;;;;;;;72.82;37.97;;;;;;;16.93;100.00;101006.16;5023528;28;20035;-80
2022/08/19 04:31:30;;;;;;;66.20;38.95;;;;;;;16.83;100.00;101008.97;5045440;28;20037;-80
2022/08/19 04:33:59;;;;;;;65.13;38.55;;;;;;;16.76;100.00;100998.69;5004794;28;20029;-80
2022/08/19 04:36:29;;;;;;;62.25;37.30;;;;;;;16.81;100.00;101013.78;5017599;28;20072;-79
2022/08/19 04:38:59;;;;;;;65.93;38.70;;;;;;;16.86;100.00;101011.44;5032341;28;20029;-80
2022/08/19 04:44:12;;;;;;;72.38;40.65;;;;;;;16.76;100.00;100999.59;5010081;28;20034;-79
2022/08/19 04:46:38;;;;;;;72.05;41.20;;;;;;;16.87;100.00;101010.44;5004467;28;20045;-79
2022/08/19 04:49:06;;;;;;;64.65;38.85;;;;;;;16.96;100.00;101004.97;5012204;28;20417;-78
2022/08/19 04:51:33;;;;;;;77.65;42.17;;;;;;;16.87;100.00;101010.44;5046278;28;20132;-78
2022/08/19 04:54:00;;;;;;;71.13;40.63;;;;;;;16.77;100.00;101009.59;5025623;28;20080;-78
2022/08/19 04:56:27;;;;;;;67.80;39.17;;;;;;;16.81;100.00;101012.94;5007416;28;20034;-78
2022/08/19 04:58:55;;;;;;;70.05;40.67;;;;;;;16.82;100.00;101010.00;5022307;28;20062;-78
2022/08/19 05:01:24;;;;;;;71.20;38.97;;;;;;;16.96;100.00;101013.28;5022751;28;20049;-82
2022/08/19 05:03:50;;;;;;;74.25;42.05;;;;;;;16.88;100.00;101017.69;5033685;28;20029;-81
2022/08/19 05:06:18;;;;;;;74.18;42.08;;;;;;;16.89;100.00;101027.72;5016339;28;20029;-83
2022/08/19 05:08:43;;;;;;;67.07;41.35;;;;;;;16.91;100.00;101030.34;5022906;28;20052;-81
2022/08/19 05:11:15;;;;;;;79.90;43.08;;;;;;;16.98;100.00;101030.56;5016568;28;20044;-82
2022/08/19 05:13:44;;;;;;;73.57;42.55;;;;;;;17.12;100.00;101034.66;5018987;28;20030;-80
2022/08/19 05:16:12;;;;;;;79.15;43.10;;;;;;;17.16;100.00;101036.09;4991238;28;20049;-80
2022/08/19 05:24:10;;;;;;;80.70;45.75;;;;;;;16.90;100.00;101042.41;5019304;28;20049;-80
2022/08/19 05:26:39;;;;;;;82.40;46.83;;;;;;;16.89;100.00;101040.69;5036803;28;20030;-82
2022/08/19 05:29:05;;;;;;;77.95;47.58;;;;;;;17.02;100.00;101043.03;5038914;28;20049;-81
2022/08/19 05:31:35;;;;;;;84.10;47.53;;;;;;;17.13;100.00;101044.72;5005865;28;20038;-81
2022/08/19 05:34:03;;;;;;;87.15;48.15;;;;;;;17.11;100.00;101055.06;5020056;28;20481;-81
2022/08/19 05:36:35;;;;;;;90.30;50.03;;;;;;;17.15;100.00;101057.38;5040446;28;20029;-82
2022/08/19 05:39:05;;;;;;;89.65;51.45;;;;;;;17.40;100.00;101058.44;5023171;28;20038;-80
2022/08/19 05:41:31;;;;;;;83.25;48.85;;;;;;;17.52;100.00;101041.56;5009106;28;20117;-82
2022/08/19 05:44:09;;;;;;;88.10;50.63;;;;;;;17.53;100.00;101054.34;4998364;28;20099;-81
2022/08/19 05:46:37;;;;;;;86.05;49.08;;;;;;;17.53;100.00;101062.66;4991236;28;20045;-80
2022/08/19 05:49:06;;;;;;;88.70;50.05;;;;;;;17.50;100.00;101058.31;4971005;28;20053;-81
2022/08/19 05:51:39;;;;;;;87.90;50.20;;;;;;;17.74;100.00;101056.75;5025278;28;20533;-81
2022/08/19 05:54:07;;;;;;;91.80;51.60;;;;;;;17.85;100.00;101052.84;5025711;28;20029;-82
2022/08/19 05:56:37;;;;;;;91.43;50.10;;;;;;;17.76;100.00;101052.78;5041310;28;20053;-82
2022/08/19 05:59:08;;;;;;;104.07;53.78;;;;;;;17.83;100.00;101051.09;5011407;28;20033;-81
2022/08/19 06:01:36;;;;;;;99.80;52.08;;;;;;;17.90;100.00;101047.69;5024295;28;20056;-81
2022/08/19 06:04:04;;;;;;;105.05;52.85;;;;;;;17.91;100.00;101041.13;5032620;28;20030;-82
2022/08/19 06:06:35;;;;;;;105.28;54.08;;;;;;;18.21;100.00;101058.25;5036041;28;20024;-80
2022/08/19 06:09:02;;;;;;;95.25;51.10;;;;;;;18.45;100.00;101055.56;4995904;28;20029;-78
2022/08/19 06:11:45;;;;;;;99.30;52.63;;;;;;;18.64;100.00;101059.06;5002182;28;20033;-78
2022/08/19 06:14:16;;;;;;;104.03;53.70;;;;;;;18.50;100.00;101060.63;5020718;28;20053;-79
2022/08/19 06:16:43;;;;;;;108.72;56.47;;;;;;;18.53;100.00;101057.50;5040584;28;20060;-80
2022/08/19 06:19:13;;;;;;;104.70;52.10;;;;;;;18.48;100.00;101060.78;5020182;28;20069;-80
2022/08/19 06:21:43;;;;;;;102.07;52.17;;;;;;;18.52;100.00;101066.84;4994291;28;20062;-80
2022/08/19 06:24:13;;;;;;;98.32;51.58;;;;;;;18.65;100.00;101063.59;5027126;28;20041;-80
2022/08/19 06:26:42;;;;;;;95.15;51.45;;;;;;;18.37;100.00;101067.47;5026317;28;20553;-78
2022/08/19 06:29:10;;;;;;;93.60;51.10;;;;;;;18.62;100.00;101063.94;5024146;28;20041;-79
2022/08/19 06:31:40;;;;;;;98.25;49.83;;;;;;;18.53;100.00;101066.69;5039238;28;20347;-78
2022/08/19 06:34:05;;;;;;;95.85;49.75;;;;;;;18.70;100.00;101064.81;5026158;28;20554;-79
2022/08/19 06:36:41;;;;;;;93.03;48.72;;;;;;;18.73;100.00;101064.47;5040814;28;20058;-78
2022/08/19 06:39:16;;;;;;;92.53;48.45;;;;;;;18.86;100.00;101069.56;5025823;28;20035;-78
2022/08/19 06:41:44;;;;;;;102.85;50.28;;;;;;;18.68;100.00;101063.25;5018513;28;20092;-79
2022/08/19 06:44:11;;;;;;;92.15;48.42;;;;;;;19.04;100.00;101066.66;5019124;28;20085;-80
2022/08/19 06:46:38;;;;;;;93.28;47.38;;;;;;;18.85;100.00;101062.28;5020565;28;20057;-80
2022/08/19 06:49:11;;;;;;;95.88;49.42;;;;;;;19.06;100.00;101063.69;5028549;28;20057;-81
2022/08/19 06:51:38;;;;;;;94.95;48.50;;;;;;;19.18;100.00;101072.53;5040596;28;20118;-82
2022/08/19 06:54:06;;;;;;;97.43;48.17;;;;;;;19.23;100.00;101071.00;5008266;28;20087;-82
2022/08/19 06:56:37;;;;;;;89.18;47.17;;;;;;;19.42;100.00;101069.78;5024156;28;20033;-82
2022/08/19 06:59:09;;;;;;;88.30;47.20;;;;;;;19.61;100.00;101073.22;5023469;28;20038;-83
2022/08/19 07:01:45;;;;;;;86.50;45.88;;;;;;;19.70;100.00;101071.31;5042125;28;20029;-82
2022/08/19 07:04:13;;;;;;;91.72;46.53;;;;;;;19.77;100.00;101075.13;5024549;28;20029;-82
2022/08/19 07:06:39;;;;;;;91.75;46.17;;;;;;;19.92;100.00;101075.28;5005683;28;20039;-83
2022/08/19 07:09:06;;;;;;;89.45;46.47;;;;;;;20.09;100.00;101068.63;5025756;28;20499;-82
2022/08/19 07:11:34;;;;;;;88.40;44.92;;;;;;;20.25;100.00;101076.06;5007351;28;20041;-81
2022/08/19 07:14:02;;;;;;;92.72;46.17;;;;;;;20.11;100.00;101087.91;5023981;28;20036;-82
2022/08/19 07:16:34;;;;;;;86.15;45.95;;;;;;;20.03;100.00;101080.47;5008567;28;20094;-82
2022/08/19 07:19:00;;;;;;;85.40;43.42;;;;;;;19.87;100.00;101080.50;5003988;28;20045;-82
2022/08/19 07:21:27;;;;;;;87.35;46.33;;;;;;;20.21;100.00;101088.56;5023176;28;20037;-82
2022/08/19 07:23:54;;;;;;;92.05;45.35;;;;;;;20.70;100.00;101101.44;5006292;28;20521;-83
2022/08/19 07:26:26;;;;;;;83.85;43.75;;;;;;;20.25;100.00;101089.97;4999717;28;20501;-83
2022/08/19 07:28:54;;;;;;;84.70;44.00;;;;;;;20.22;100.00;101086.66;5006342;28;20029;-82
2022/08/19 07:31:22;;;;;;;79.00;43.70;;;;;;;20.92;100.00;101095.06;5013845;28;20503;-82
2022/08/19 07:33:55;;;;;;;84.45;43.78;;;;;;;21.19;100.00;101089.13;5041950;28;20026;-81
2022/08/19 07:36:24;;;;;;;81.22;43.17;;;;;;;20.89;100.00;101088.97;5041886;28;20038;-81
2022/08/19 07:38:50;;;;;;;78.97;41.35;;;;;;;21.37;100.00;101099.94;5003809;28;20034;-82
2022/08/19 07:41:22;;;;;;;88.82;44.30;;;;;;;21.01;100.00;101093.06;5004766;28;20437;-83
2022/08/19 07:43:52;;;;;;;77.38;39.75;;;;;;;21.07;100.00;101102.59;5004967;28;20026;-81
2022/08/19 07:46:20;;;;;;;76.75;41.72;;;;;;;21.60;100.00;101097.16;5003278;28;20615;-82
2022/08/19 07:48:50;;;;;;;80.35;41.95;;;;;;;21.26;100.00;101090.97;4987323;28;20097;-83
2022/08/19 07:51:19;;;;;;;84.95;41.50;;;;;;;21.36;100.00;101089.84;5020848;28;20029;-82
2022/08/19 07:53:45;;;;;;;82.20;40.88;;;;;;;21.66;100.00;101100.06;5006294;28;20033;-84
2022/08/19 07:56:13;;;;;;;79.13;39.13;;;;;;;21.82;100.00;101109.31;5025977;28;20057;-82
2022/08/19 07:58:42;;;;;;;75.15;38.15;;;;;;;22.06;100.00;101104.56;5044270;28;20037;-85
2022/08/19 08:01:18;;;;;;;88.33;40.83;;;;;;;21.77;100.00;101109.03;5028425;28;20025;-83
2022/08/19 08:09:21;;;;;;;75.07;36.65;;;;;;;21.96;100.00;101094.53;5026784;28;20401;-83
2022/08/19 08:11:56;;;;;;;81.03;35.83;;;;;;;23.26;100.00;101106.13;5009746;28;20473;-83
2022/08/19 08:14:32;;;;;;;78.10;36.35;;;;;;;22.29;100.00;101116.50;5040162;28;20040;-82
2022/08/19 08:17:00;;;;;;;63.17;30.75;;;;;;;22.73;100.00;101128.69;5022615;28;20029;-82
2022/08/19 08:19:27;;;;;;;67.75;32.70;;;;;;;22.80;100.00;101123.19;5023030;28;20060;-82
2022/08/19 08:21:55;;;;;;;64.47;32.10;;;;;;;23.37;100.00;101127.09;5039101;28;20036;-83
2022/08/19 08:24:20;;;;;;;53.75;29.38;;;;;;;23.82;100.00;101128.59;5021879;28;20033;-81
2022/08/19 08:26:46;;;;;;;60.58;27.65;;;;;;;24.00;100.00;101130.03;4989426;28;20439;-82
2022/08/19 08:29:15;;;;;;;60.03;27.58;;;;;;;23.18;100.00;101135.06;5041332;28;20091;-83
2022/08/19 08:31:43;;;;;;;56.83;27.27;;;;;;;23.76;100.00;101134.09;5041756;28;20034;-82
2022/08/19 08:34:11;;;;;;;62.08;28.77;;;;;;;24.14;100.00;101145.00;5023545;28;20026;-83
2022/08/19 08:36:42;;;;;;;52.67;27.35;;;;;;;24.30;100.00;101146.59;5022488;28;20123;-83
2022/08/19 08:39:14;;;;;;;60.45;25.63;;;;;;;24.49;100.00;101142.22;5023355;28;20041;-84
2022/08/19 08:41:49;;;;;;;52.08;25.67;;;;;;;24.38;100.00;101140.84;5041695;28;20385;-83
2022/08/19 08:44:21;;;;;;;52.92;25.52;;;;;;;24.64;100.00;101137.34;5041768;28;20064;-82
2022/08/19 08:46:51;;;;;;;53.47;24.23;;;;;;;24.51;100.00;101140.06;5007155;28;20406;-82
2022/08/19 08:49:16;;;;;;;49.15;23.27;;;;;;;24.39;100.00;101143.44;5021974;28;20112;-83
2022/08/19 08:51:47;;;;;;;44.58;21.70;;;;;;;24.37;100.00;101137.19;5005710;28;20084;-83
2022/08/19 08:54:20;;;;;;;39.33;20.45;;;;;;;25.23;100.00;101130.25;5022985;28;20036;-82
2022/08/19 08:56:49;;;;;;;62.75;24.52;;;;;;;24.35;100.00;101130.94;5041340;28;20116;-83
2022/08/19 08:59:28;;;;;;;53.50;23.48;;;;;;;24.83;100.00;101130.13;5022147;28;20083;-83
2022/08/19 09:01:53;;;;;;;64.63;24.45;;;;;;;24.51;100.00;101129.72;4997217;28;20493;-81
2022/08/19 09:04:19;;;;;;;45.75;21.67;;;;;;;24.99;100.00;101131.69;5005272;28;20132;-82
2022/08/19 09:06:58;;;;;;;45.15;21.67;;;;;;;25.16;100.00;101132.19;5040777;28;20041;-82
2022/08/19 09:09:32;;;;;;;39.97;21.10;;;;;;;25.33;100.00;101127.06;5006299;28;20132;-82
2022/08/19 09:12:24;;;;;;;44.58;22.00;;;;;;;26.12;100.00;101130.13;5038931;28;20488;-82
2022/08/19 09:15:05;;;;;;;45.63;21.23;;;;;;;25.40;100.00;101127.97;5012186;28;20038;-83
2022/08/19 09:17:33;;;;;;;38.95;18.80;;;;;;;25.88;100.00;101128.84;5026582;28;20021;-82
2022/08/19 09:20:13;;;;;;;47.63;19.15;;;;;;;25.37;100.00;101133.13;5009801;28;20056;-82
2022/08/19 09:22:44;;;;;;;36.63;19.10;;;;;;;25.86;100.00;101127.13;5044264;28;20393;-84
2022/08/19 09:25:12;;;;;;;34.63;18.42;;;;;;;25.27;100.00;101122.34;5025905;28;20030;-83
2022/08/19 09:27:42;;;;;;;48.95;22.20;;;;;;;24.89;100.00;101123.69;5044229;28;20523;-82
2022/08/19 09:30:14;;;;;;;39.55;21.20;;;;;;;26.30;100.00;101129.47;5025712;28;20067;-82
2022/08/19 09:32:42;;;;;;;48.40;24.52;;;;;;;25.19;100.00;101109.34;5026393;28;20476;-82
2022/08/19 09:35:08;;;;;;;59.45;25.48;;;;;;;26.18;100.00;101123.66;4994324;28;20037;-82
2022/08/19 09:37:37;;;;;;;48.92;25.48;;;;;;;26.16;100.00;101129.50;5009845;28;20080;-82
2022/08/19 09:40:07;;;;;;;46.60;24.65;;;;;;;26.18;100.00;101137.69;4993270;28;20033;-82
2022/08/19 09:42:33;;;;;;;52.70;26.73;;;;;;;26.13;100.00;101134.69;5026198;28;20037;-82
2022/08/19 09:44:59;;;;;;;54.63;30.10;;;;;;;26.31;100.00;101137.66;5042474;28;20040;-82
2022/08/19 09:47:25;;;;;;;60.97;30.20;;;;;;;26.23;100.00;101127.53;5025307;28;20034;-81
2022/08/19 09:49:52;;;;;;;56.28;25.88;;;;;;;26.52;99.58;101130.91;5009795;28;20034;-83
2022/08/19 09:52:18;;;;;;;61.95;29.70;;;;;;;26.56;97.32;101126.59;5009138;28;20065;-83
2022/08/19 09:54:44;;;;;;;62.63;31.67;;;;;;;25.77;100.00;101127.53;5009319;28;20057;-83
2022/08/19 09:57:10;;;;;;;63.13;33.08;;;;;;;25.81;100.00;101132.53;5009634;28;20358;-83
2022/08/19 09:59:39;;;;;;;62.53;27.70;;;;;;;26.05;97.14;101132.94;5008298;28;20045;-83
2022/08/19 10:02:05;;;;;;;57.22;32.63;;;;;;;26.43;96.70;101135.03;5039102;28;20108;-82
2022/08/19 10:07:15;;;;;;;77.70;35.30;;;;;;;26.40;94.13;101136.34;5014238;28;20387;-83
2022/08/19 10:09:41;;;;;;;66.63;34.35;;;;;;;26.15;98.98;101135.31;5024858;28;20044;-83
2022/08/19 10:12:08;;;;;;;73.13;37.35;;;;;;;26.67;95.89;101129.84;5022048;28;20077;-83
2022/08/19 10:14:35;;;;;;;73.20;39.15;;;;;;;26.85;95.29;101135.59;5022356;28;20053;-83
2022/08/19 10:17:02;;;;;;;77.95;38.40;;;;;;;26.46;98.13;101136.56;5042216;28;20052;-83
2022/08/19 10:19:35;;;;;;;90.82;39.38;;;;;;;26.51;98.29;101140.41;5025705;28;20034;-82
2022/08/19 10:22:03;;;;;;;;;;;;;;;26.96;95.00;101129.25;5009025;28;20117;-82
2022/08/19 10:24:30;;;;;;;75.15;37.15;;;;;;;27.43;91.19;101134.66;5025100;28;19908;-82
2022/08/19 10:26:57;;;;;;;87.47;39.97;;;;;;;27.13;92.07;101134.38;5024971;28;20075;-83
2022/08/19 10:29:22;;;;;;;83.00;37.80;;;;;;;26.21;96.46;101140.06;5006040;28;20053;-82
2022/08/19 10:31:48;;;;;;;71.75;34.05;;;;;;;26.95;94.06;101135.97;5040826;28;20044;-82
2022/08/19 10:34:13;;;;;;;75.53;36.10;;;;;;;26.42;96.57;101141.75;5008831;28;20030;-83
2022/08/19 10:36:39;;;;;;;95.30;41.45;;;;;;;26.03;99.22;101138.78;5024606;28;20033;-83
2022/08/19 10:39:09;;;;;;;91.72;39.85;;;;;;;25.28;100.00;101121.22;4992958;28;20037;-82
2022/08/19 10:41:37;;;;;;;74.07;36.10;;;;;;;26.38;99.63;101138.53;5045645;28;20026;-82
2022/08/19 10:44:07;;;;;;;82.63;35.63;;;;;;;26.11;99.48;101128.44;5028513;28;20052;-83
2022/08/19 10:46:41;;;;;;;89.50;40.00;;;;;;;25.09;100.00;101128.50;5007097;28;20046;-82
2022/08/19 10:49:10;;;;;;;103.55;41.75;;;;;;;24.84;100.00;101126.25;5012359;28;20026;-84
2022/08/19 10:54:22;;;;;;;94.40;39.92;;;;;;;26.66;100.00;101131.78;5042104;28;20033;-83
2022/08/19 10:56:54;;;;;;;105.07;43.10;;;;;;;26.88;100.00;101135.16;4976397;28;20034;-82
2022/08/19 10:59:24;;;;;;;102.07;40.42;;;;;;;26.49;100.00;101133.31;5007084;28;20036;-82
2022/08/19 11:01:51;;;;;;;83.20;35.70;;;;;;;27.24;100.00;101132.81;5042595;28;20029;-83
2022/08/19 11:04:19;;;;;;;85.78;36.45;;;;;;;27.04;100.00;101122.53;5023476;28;20110;-84
2022/08/19 11:06:48;;;;;;;84.72;36.33;;;;;;;27.01;100.00;101120.16;5008947;28;20036;-82
2022/08/19 11:09:16;;;;;;;95.05;36.20;;;;;;;26.40;100.00;101121.47;5008433;28;20030;-83
2022/08/19 11:11:42;;;;;;;78.32;30.67;;;;;;;26.54;100.00;101133.50;5005831;28;20037;-82
2022/08/19 11:14:13;;;;;;;75.45;32.47;;;;;;;26.27;100.00;101132.69;5021715;28;20061;-83
2022/08/19 11:16:41;;;;;;;71.65;30.63;;;;;;;26.25;100.00;101144.16;5023090;28;20026;-83
2022/08/19 11:19:11;;;;;;;76.30;32.50;;;;;;;26.19;100.00;101145.91;5006336;28;20397;-83
2022/08/19 11:21:42;;;;;;;65.60;26.85;;;;;;;26.22;100.00;101144.63;5007017;28;20033;-85
2022/08/19 11:24:15;;;;;;;70.75;28.40;;;;;;;26.43;99.68;101137.84;5021162;28;20033;-84
2022/08/19 11:26:43;;;;;;;75.05;31.45;;;;;;;26.57;93.48;101138.69;5004097;28;20028;-83
2022/08/19 11:29:13;;;;;;;74.30;30.75;;;;;;;26.28;94.54;101143.72;5011456;28;20029;-84